createdAt,value
2022-08-03T00:00:24.315Z,17.25
2022-08-03T00:03:25.951Z,17.36
2022-08-03T00:06:27.513Z,17.25
2022-08-03T00:09:35.560Z,17.16
2022-08-03T00:12:37.485Z,17.21
2022-08-03T00:15:42.453Z,17.09
2022-08-03T00:18:43.968Z,17.01
2022-08-03T00:21:45.523Z,16.92
2022-08-03T00:24:47.088Z,16.91
2022-08-03T00:27:50.410Z,16.88
2022-08-03T00:30:52.547Z,16.84
2022-08-03T00:33:59.100Z,16.81
2022-08-03T00:37:04.189Z,16.73
2022-08-03T00:40:06.312Z,16.67
2022-08-03T00:43:08.286Z,16.63
2022-08-03T00:46:09.733Z,16.64
2022-08-03T00:49:11.433Z,16.65
2022-08-03T00:52:13.495Z,16.63
2022-08-03T00:55:15.118Z,16.62
2022-08-03T00:58:16.686Z,16.64
2022-08-03T01:01:18.248Z,16.62
2022-08-03T01:04:19.828Z,16.59
2022-08-03T01:07:33.829Z,16.45
2022-08-03T01:10:54.925Z,16.42
2022-08-03T01:14:21.322Z,16.36
2022-08-03T01:17:44.169Z,16.31
2022-08-03T01:20:49.655Z,16.26
2022-08-03T01:24:12.998Z,16.08
2022-08-03T01:27:42.663Z,16.05
2022-08-03T01:30:44.313Z,16.02
2022-08-03T01:33:48.396Z,16.01
2022-08-03T01:36:53.138Z,15.96
2022-08-03T01:39:56.089Z,16.04
2022-08-03T01:42:58.680Z,16.15
2022-08-03T01:46:00.286Z,16.23
2022-08-03T01:49:08.936Z,16.22
2022-08-03T01:52:11.303Z,16.09
2022-08-03T01:55:12.865Z,16.09
2022-08-03T01:58:15.395Z,16.04
2022-08-03T02:01:17.074Z,16.05
2022-08-03T02:04:18.702Z,16.02
2022-08-03T02:07:20.262Z,15.91
2022-08-03T02:10:22.193Z,15.87
2022-08-03T02:13:36.683Z,15.82
2022-08-03T02:16:38.248Z,15.88
2022-08-03T02:19:40.001Z,15.77
2022-08-03T02:22:42.361Z,15.78
2022-08-03T02:26:03.257Z,15.82
2022-08-03T02:29:08.450Z,15.91
2022-08-03T02:32:18.104Z,15.75
2022-08-03T02:35:19.881Z,15.64
2022-08-03T02:38:23.674Z,15.60
2022-08-03T02:41:30.790Z,15.58
2022-08-03T02:44:32.778Z,15.58
2022-08-03T02:47:54.373Z,15.56
2022-08-03T02:50:58.179Z,15.59
2022-08-03T02:54:02.511Z,15.51
2022-08-03T02:57:04.079Z,15.48
2022-08-03T03:00:06.257Z,15.46
2022-08-03T03:03:07.813Z,15.56
2022-08-03T03:06:11.297Z,15.47
2022-08-03T03:09:12.904Z,15.46
2022-08-03T03:12:14.873Z,15.44
2022-08-03T03:15:16.377Z,15.44
2022-08-03T03:18:22.282Z,15.46
2022-08-03T03:21:24.502Z,15.42
2022-08-03T03:24:26.073Z,15.35
2022-08-03T03:27:27.634Z,15.28
2022-08-03T03:30:31.555Z,15.22
2022-08-03T03:33:36.477Z,15.20
2022-08-03T03:36:38.072Z,15.30
2022-08-03T03:39:39.898Z,15.23
2022-08-03T03:42:41.494Z,15.26
2022-08-03T03:45:43.097Z,15.17
2022-08-03T03:48:44.674Z,15.16
2022-08-03T03:51:46.243Z,15.11
2022-08-03T03:54:47.800Z,15.14
2022-08-03T03:57:49.339Z,15.11
2022-08-03T04:00:50.992Z,15.13
2022-08-03T04:03:52.577Z,15.06
2022-08-03T04:07:12.847Z,15.12
2022-08-03T04:10:35.880Z,15.20
2022-08-03T04:13:39.993Z,15.16
2022-08-03T04:16:44.018Z,15.21
2022-08-03T04:19:51.475Z,15.15
2022-08-03T04:22:53.043Z,15.18
2022-08-03T04:25:54.600Z,15.15
2022-08-03T04:28:56.187Z,15.17
2022-08-03T04:31:58.779Z,15.14
2022-08-03T04:35:00.447Z,15.15
2022-08-03T04:38:03.412Z,15.23
2022-08-03T04:41:05.063Z,15.24
2022-08-03T04:44:06.639Z,15.26
2022-08-03T04:47:10.919Z,15.24
2022-08-03T04:50:15.015Z,15.25
2022-08-03T04:53:19.545Z,15.27
2022-08-03T04:56:21.314Z,15.30
2022-08-03T04:59:22.861Z,15.42
2022-08-03T05:02:24.409Z,15.51
2022-08-03T05:05:26.014Z,15.61
2022-08-03T05:08:46.879Z,15.69
2022-08-03T05:11:50.459Z,15.74
2022-08-03T05:14:52.034Z,15.81
2022-08-03T05:17:53.647Z,15.89
2022-08-03T05:20:55.212Z,15.95
2022-08-03T05:23:56.743Z,16.09
2022-08-03T05:26:58.334Z,16.16
2022-08-03T05:30:29.703Z,16.28
2022-08-03T05:33:21.457Z,16.43
2022-08-03T05:36:23.111Z,16.52
2022-08-03T05:39:24.655Z,16.60
2022-08-03T05:42:26.231Z,16.71
2022-08-03T05:45:29.739Z,16.85
2022-08-03T05:48:31.302Z,16.92
2022-08-03T05:51:33.121Z,17.03
2022-08-03T05:54:56.326Z,17.14
2022-08-03T05:57:56.825Z,17.26
2022-08-03T06:00:59.060Z,17.37
2022-08-03T06:04:00.618Z,17.42
2022-08-03T06:07:02.206Z,17.50
2022-08-03T06:10:37.409Z,17.61
2022-08-03T06:13:26.403Z,17.73
2022-08-03T06:16:27.966Z,17.86
2022-08-03T06:19:29.566Z,17.96
2022-08-03T06:22:31.172Z,18.06
2022-08-03T06:25:32.752Z,18.15
2022-08-03T06:28:51.513Z,18.28
2022-08-03T06:31:53.682Z,18.46
2022-08-03T06:34:55.265Z,18.65
2022-08-03T06:37:57.089Z,18.80
2022-08-03T06:40:58.520Z,18.93
2022-08-03T06:44:03.965Z,19.13
2022-08-03T06:47:05.961Z,19.29
2022-08-03T06:50:12.619Z,19.39
2022-08-03T06:53:21.222Z,19.48
2022-08-03T06:56:23.108Z,19.66
2022-08-03T07:00:07.552Z,19.81
2022-08-03T07:02:46.523Z,19.97
2022-08-03T07:05:49.180Z,20.29
2022-08-03T07:08:53.636Z,20.72
2022-08-03T07:11:57.278Z,21.01
2022-08-03T07:15:01.772Z,21.22
2022-08-03T07:18:04.364Z,21.58
2022-08-03T07:21:05.913Z,21.83
2022-08-03T07:24:07.524Z,22.03
2022-08-03T07:27:09.511Z,22.32
2022-08-03T07:30:11.422Z,22.58
2022-08-03T07:33:12.995Z,22.67
2022-08-03T07:36:14.406Z,22.88
2022-08-03T07:39:18.010Z,23.21
2022-08-03T07:42:20.505Z,23.50
2022-08-03T07:45:23.439Z,23.76
2022-08-03T07:48:25.147Z,24.08
2022-08-03T07:51:26.705Z,24.37
2022-08-03T07:54:28.253Z,24.67
2022-08-03T07:57:29.935Z,24.90
2022-08-03T08:00:31.601Z,25.05
2022-08-03T08:03:52.348Z,25.30
2022-08-03T08:06:54.563Z,25.56
2022-08-03T08:09:56.098Z,25.78
2022-08-03T08:12:57.652Z,26.03
2022-08-03T08:15:59.219Z,26.16
2022-08-03T08:19:02.063Z,26.22
2022-08-03T08:22:03.643Z,26.36
2022-08-03T08:25:07.432Z,26.51
2022-08-03T08:28:22.436Z,26.69
2022-08-03T08:31:30.573Z,26.80
2022-08-03T08:34:32.412Z,26.95
2022-08-03T08:37:34.056Z,27.17
2022-08-03T08:40:35.704Z,27.48
2022-08-03T08:43:37.317Z,28.02
2022-08-03T08:46:38.891Z,28.25
2022-08-03T08:49:53.414Z,28.25
2022-08-03T08:53:03.790Z,28.20
2022-08-03T08:56:05.498Z,27.78
2022-08-03T08:59:07.110Z,27.69
2022-08-03T09:02:08.661Z,28.15
2022-08-03T09:05:18.473Z,28.09
2022-08-03T09:08:20.293Z,28.09
2022-08-03T09:12:00.962Z,28.33
2022-08-03T09:15:00.900Z,28.31
2022-08-03T09:18:07.016Z,28.54
2022-08-03T09:21:37.284Z,28.67
2022-08-03T09:25:14.756Z,28.92
2022-08-03T09:28:58.110Z,28.88
2022-08-03T09:31:45.352Z,28.80
2022-08-03T09:34:48.628Z,28.90
2022-08-03T09:38:15.940Z,29.13
2022-08-03T09:41:17.989Z,29.49
2022-08-03T09:44:25.853Z,30.00
2022-08-03T09:47:29.389Z,29.89
2022-08-03T09:50:30.947Z,29.79
2022-08-03T09:53:32.486Z,29.44
2022-08-03T09:56:44.165Z,29.87
2022-08-03T09:59:45.703Z,29.93
2022-08-03T10:02:50.567Z,29.79
2022-08-03T10:05:56.057Z,29.67
2022-08-03T10:09:11.674Z,29.89
2022-08-03T10:12:13.580Z,30.61
2022-08-03T10:16:21.915Z,30.83
2022-08-03T10:18:40.002Z,30.60
2022-08-03T10:21:46.547Z,30.83
2022-08-03T10:25:09.171Z,31.58
2022-08-03T10:28:12.639Z,31.61
2022-08-03T10:31:14.413Z,31.70
2022-08-03T10:34:22.882Z,31.47
2022-08-03T10:37:26.119Z,31.26
2022-08-03T10:40:49.400Z,30.97
2022-08-03T10:44:05.864Z,30.85
2022-08-03T10:47:07.442Z,30.76
2022-08-03T10:50:09.024Z,31.04
2022-08-03T10:53:10.611Z,30.63
2022-08-03T10:56:51.116Z,30.99
2022-08-03T10:59:55.295Z,31.12
2022-08-03T11:03:14.433Z,30.89
2022-08-03T11:06:24.857Z,31.01
2022-08-03T11:09:26.518Z,31.11
2022-08-03T11:12:32.629Z,30.98
2022-08-03T11:15:34.585Z,31.63
2022-08-03T11:18:36.118Z,32.03
2022-08-03T11:21:52.670Z,32.13
2022-08-03T11:24:54.424Z,31.80
2022-08-03T11:28:24.766Z,31.29
2022-08-03T11:31:48.505Z,31.20
2022-08-03T11:35:08.765Z,31.58
2022-08-03T11:38:10.615Z,31.30
2022-08-03T11:41:45.236Z,31.55
2022-08-03T11:44:47.561Z,31.33
2022-08-03T11:47:50.628Z,31.65
2022-08-03T11:50:52.986Z,31.96
2022-08-03T11:54:02.719Z,32.15
2022-08-03T11:57:04.412Z,32.89
2022-08-03T12:00:28.466Z,32.38
2022-08-03T12:03:32.574Z,32.48
2022-08-03T12:07:00.247Z,32.47
2022-08-03T12:10:15.164Z,32.39
2022-08-03T12:14:44.892Z,31.94
2022-08-03T12:16:38.910Z,32.36
2022-08-03T12:19:43.748Z,32.04
2022-08-03T12:22:45.343Z,31.62
2022-08-03T12:25:47.534Z,32.02
2022-08-03T12:28:51.156Z,31.81
2022-08-03T12:31:52.730Z,32.35
2022-08-03T12:34:54.406Z,32.49
2022-08-03T12:38:10.598Z,32.48
2022-08-03T12:41:13.699Z,32.68
2022-08-03T12:44:15.245Z,32.87
2022-08-03T12:47:17.111Z,32.83
2022-08-03T12:50:32.764Z,32.89
2022-08-03T12:53:35.493Z,33.02
2022-08-03T12:56:46.344Z,32.90
2022-08-03T12:59:53.257Z,33.24
2022-08-03T13:03:38.357Z,33.46
2022-08-03T13:06:27.548Z,33.76
2022-08-03T13:09:29.914Z,34.21
2022-08-03T13:12:32.545Z,33.91
2022-08-03T13:15:38.674Z,33.73
2022-08-03T13:18:49.510Z,33.57
2022-08-03T13:22:02.122Z,33.21
2022-08-03T13:25:06.206Z,33.06
2022-08-03T13:28:12.341Z,33.39
2022-08-03T13:31:16.852Z,33.98
2022-08-03T13:34:23.054Z,33.90
2022-08-03T13:37:25.930Z,33.80
2022-08-03T13:40:30.032Z,33.85
2022-08-03T13:43:32.036Z,33.40
2022-08-03T13:46:34.474Z,33.84
2022-08-03T13:49:37.352Z,34.18
2022-08-03T13:52:39.025Z,34.33
2022-08-03T13:55:40.574Z,34.35
2022-08-03T13:58:42.137Z,34.60
2022-08-03T14:01:54.984Z,34.45
2022-08-03T14:04:57.372Z,34.60
2022-08-03T14:08:03.851Z,34.39
2022-08-03T14:11:06.557Z,34.18
2022-08-03T14:14:08.118Z,34.46
2022-08-03T14:17:09.728Z,34.67
2022-08-03T14:20:37.441Z,34.03
2022-08-03T14:23:35.037Z,33.44
2022-08-03T14:26:36.612Z,33.84
2022-08-03T14:29:38.162Z,33.72
2022-08-03T14:32:39.762Z,33.24
2022-08-03T14:35:41.302Z,33.11
2022-08-03T14:38:42.820Z,33.26
2022-08-03T14:41:44.443Z,33.26
2022-08-03T14:44:46.637Z,33.54
2022-08-03T14:50:29.530Z,33.68
2022-08-03T14:51:10.230Z,33.51
2022-08-03T14:54:11.839Z,33.29
2022-08-03T14:57:13.402Z,33.16
2022-08-03T15:00:15.418Z,33.27
2022-08-03T15:03:20.298Z,33.48
2022-08-03T15:06:22.110Z,33.08
2022-08-03T15:09:24.232Z,33.44
2022-08-03T15:12:26.153Z,33.29
2022-08-03T15:15:27.807Z,33.42
2022-08-03T15:18:29.348Z,33.67
2022-08-03T15:21:46.834Z,33.43
2022-08-03T15:24:49.210Z,33.53
2022-08-03T15:28:03.941Z,33.53
2022-08-03T15:31:06.771Z,33.69
2022-08-03T15:34:08.311Z,33.61
2022-08-03T15:37:15.084Z,33.46
2022-08-03T15:40:18.287Z,33.56
2022-08-03T15:43:20.509Z,33.52
2022-08-03T15:46:30.076Z,33.36
2022-08-03T15:49:31.814Z,33.23
2022-08-03T15:52:35.930Z,33.26
2022-08-03T15:55:37.504Z,33.47
2022-08-03T15:59:04.117Z,33.21
2022-08-03T16:02:00.870Z,33.14
2022-08-03T16:05:02.527Z,33.19
2022-08-03T16:08:06.302Z,33.24
2022-08-03T16:11:10.962Z,33.09
2022-08-03T16:14:34.678Z,32.94
2022-08-03T16:17:34.067Z,33.15
2022-08-03T16:20:35.704Z,33.23
2022-08-03T16:23:39.633Z,33.13
2022-08-03T16:26:44.640Z,33.05
2022-08-03T16:29:46.297Z,33.14
2022-08-03T16:32:48.060Z,33.06
2022-08-03T16:35:49.706Z,33.13
2022-08-03T16:38:51.327Z,33.07
2022-08-03T16:41:53.762Z,33.04
2022-08-03T16:45:02.769Z,32.96
2022-08-03T16:48:05.958Z,32.89
2022-08-03T16:51:07.776Z,32.83
2022-08-03T16:54:12.571Z,32.75
2022-08-03T16:57:15.694Z,32.72
2022-08-03T17:00:33.648Z,32.61
2022-08-03T17:03:57.053Z,32.47
2022-08-03T17:06:59.225Z,32.45
2022-08-03T17:10:01.675Z,32.33
2022-08-03T17:13:03.415Z,32.31
2022-08-03T17:16:07.980Z,32.28
2022-08-03T17:19:09.529Z,32.23
2022-08-03T17:22:18.070Z,32.20
2022-08-03T17:25:22.120Z,32.22
2022-08-03T17:28:51.914Z,32.09
2022-08-03T17:31:58.764Z,31.96
2022-08-03T17:35:00.344Z,31.90
2022-08-03T17:38:05.744Z,31.87
2022-08-03T17:41:10.802Z,31.82
2022-08-03T17:44:31.984Z,31.79
2022-08-03T17:47:42.370Z,31.73
2022-08-03T17:50:47.050Z,31.61
2022-08-03T17:54:18.525Z,31.52
2022-08-03T17:58:01.274Z,31.41
2022-08-03T18:04:55.213Z,31.05
2022-08-03T18:07:59.348Z,30.73
2022-08-03T18:11:14.847Z,30.49
2022-08-03T18:14:37.581Z,30.09
2022-08-03T18:17:57.965Z,29.83
2022-08-03T18:21:02.314Z,29.58
2022-08-03T18:24:08.382Z,29.36
2022-08-03T18:27:11.524Z,29.17
2022-08-03T18:30:13.783Z,28.91
2022-08-03T18:34:16.977Z,28.84
2022-08-03T18:36:38.427Z,28.63
2022-08-03T18:39:50.144Z,28.42
2022-08-03T18:42:54.842Z,28.35
2022-08-03T18:45:57.919Z,28.21
2022-08-03T18:49:08.332Z,27.99
2022-08-03T18:52:17.985Z,27.75
2022-08-03T18:56:01.404Z,27.68
2022-08-03T18:59:30.254Z,27.60
2022-08-03T19:02:52.603Z,27.45
2022-08-03T19:06:02.696Z,27.44
2022-08-03T19:09:12.917Z,27.23
2022-08-03T19:12:30.927Z,27.03
2022-08-03T19:15:36.891Z,26.75
2022-08-03T19:18:42.991Z,26.67
2022-08-03T19:21:45.282Z,26.48
2022-08-03T19:24:47.734Z,26.26
2022-08-03T19:27:49.407Z,26.30
2022-08-03T19:30:53.644Z,26.34
2022-08-03T19:33:59.858Z,26.21
2022-08-03T19:37:02.716Z,26.06
2022-08-03T19:40:06.031Z,25.89
2022-08-03T19:43:17.841Z,25.74
2022-08-03T19:46:20.111Z,25.51
2022-08-03T19:49:26.206Z,25.29
2022-08-03T19:52:48.854Z,25.14
2022-08-03T19:55:51.464Z,25.03
2022-08-03T19:58:54.658Z,24.97
2022-08-03T20:01:56.365Z,25.02
2022-08-03T20:04:59.958Z,24.77
2022-08-03T20:08:05.291Z,24.61
2022-08-03T20:11:06.904Z,24.56
2022-08-03T20:14:08.695Z,24.40
2022-08-03T20:17:10.250Z,24.32
2022-08-03T20:20:12.440Z,24.15
2022-08-03T20:23:16.821Z,24.01
2022-08-03T20:26:20.319Z,23.99
2022-08-03T20:30:06.812Z,23.95
2022-08-03T20:32:55.202Z,23.85
2022-08-03T20:35:56.833Z,23.54
2022-08-03T20:38:59.057Z,23.42
2022-08-03T20:42:01.957Z,23.44
2022-08-03T20:45:05.679Z,23.45
2022-08-03T20:48:14.610Z,23.53
2022-08-03T20:51:20.121Z,23.56
2022-08-03T20:54:39.765Z,23.58
2022-08-03T20:57:42.311Z,23.42
2022-08-03T21:00:51.455Z,23.17
2022-08-03T21:03:55.745Z,23.21
2022-08-03T21:07:03.586Z,23.11
2022-08-03T21:10:18.172Z,22.87
2022-08-03T21:12:56.256Z,31.33
2022-08-03T21:13:33.433Z,22.80
2022-08-03T21:16:35.196Z,22.85
2022-08-03T21:19:37.443Z,22.82
2022-08-03T21:22:54.189Z,22.63
2022-08-03T21:25:56.328Z,22.48
2022-08-03T21:28:57.878Z,22.48
2022-08-03T21:31:59.524Z,22.37
2022-08-03T21:35:02.216Z,22.21
2022-08-03T21:38:18.974Z,22.30
2022-08-03T21:41:20.606Z,22.32
2022-08-03T21:44:25.252Z,22.34
2022-08-03T21:47:30.732Z,21.98
2022-08-03T21:50:32.315Z,21.82
2022-08-03T21:54:03.701Z,21.75
2022-08-03T21:56:55.351Z,21.63
2022-08-03T22:00:08.332Z,21.63
2022-08-03T22:03:17.313Z,21.57
2022-08-03T22:06:19.980Z,21.49
2022-08-03T22:09:21.688Z,21.56
2022-08-03T22:12:23.827Z,21.53
2022-08-03T22:15:25.422Z,21.40
2022-08-03T22:18:26.833Z,21.43
2022-08-03T22:21:35.726Z,21.20
2022-08-03T22:24:38.143Z,21.07
2022-08-03T22:27:43.160Z,21.12
2022-08-03T22:30:44.804Z,21.16
2022-08-03T22:33:46.518Z,21.19
2022-08-03T22:36:48.146Z,21.22
2022-08-03T22:39:49.758Z,21.21
2022-08-03T22:42:52.131Z,20.91
2022-08-03T22:46:09.023Z,20.77
2022-08-03T22:49:14.034Z,20.65
2022-08-03T22:52:15.678Z,20.58
2022-08-03T22:55:24.510Z,20.49
2022-08-03T22:58:26.568Z,20.53
2022-08-03T23:01:28.142Z,20.44
2022-08-03T23:04:29.774Z,20.45
2022-08-03T23:07:31.951Z,20.53
2022-08-03T23:10:33.601Z,20.43
2022-08-03T23:13:35.214Z,20.46
2022-08-03T23:16:41.410Z,20.48
2022-08-03T23:19:44.739Z,20.39
2022-08-03T23:22:47.765Z,20.39
2022-08-03T23:25:50.541Z,20.33
2022-08-03T23:28:52.199Z,20.12
2022-08-03T23:31:53.749Z,20.08
2022-08-03T23:35:18.605Z,20.10
2022-08-03T23:38:23.289Z,20.06
2022-08-03T23:41:24.947Z,20.08
2022-08-03T23:44:27.464Z,20.06
2022-08-03T23:47:46.505Z,19.97
2022-08-03T23:50:51.981Z,19.86
2022-08-03T23:54:06.064Z,19.80
2022-08-03T23:57:28.197Z,19.82
